This demonstration page uses our WeatherBlox Daily Observations layout. Learn more.

Hourly Observations for October 13, 2019

Temp ( °F °C ) Dew Point ( °F °C ) Humidity (%) Winds ( mph kmh ) Pressure ( in mb ) Visibility ( mi km ) Precip ( " mm )
12:54 am 00:54 Clear 35 1.7 23 -5 61 61 VRB 3 6 29.91 1013 10 16.09344 0 0
1:54 am 01:54 Clear 38 3.3 22 -5.6 52 52 Calm 29.91 1013 10 16.09344 0 0
2:54 am 02:54 Clear 34 1.1 22 -5.6 61 61 Calm 29.94 1014 10 16.09344 0 0
3:54 am 03:54 Clear 35 1.7 22 -5.6 59 59 Calm 29.94 1014 10 16.09344 0 0
4:54 am 04:54 Clear 30 -1.1 22 -5.6 72 72 Calm 29.94 1014 10 16.09344 0 0
5:54 am 05:54 Clear 27 -2.8 23 -5 85 85 S 7 11 29.94 1014 10 16.09344 0 0
6:54 am 06:54 Clear 31 -0.6 23 -5 72 72 S 3 6 29.97 1015 10 16.09344 0 0
7:54 am 07:54 Sunny 33 0.6 24 -4.4 70 70 WSW 3 6 29.97 1015 10 16.09344 0 0
8:54 am 08:54 Sunny 37 2.8 26 -3.3 65 65 Calm 29.97 1015 10 16.09344 0 0
9:54 am 09:54 Sunny 45 7.2 28 -2.2 52 52 W 9 15 30 1016 10 16.09344 0 0
10:54 am 10:54 Sunny 50 10 28 -2.2 43 43 W 10 17 30 1016 10 16.09344 0 0
11:54 am 11:54 Sunny 54 12.2 23 -5 30 30 WNW 13 20 29.97 1015 10 16.09344 0 0
12:54 pm 12:54 Sunny 58 14.4 22 -5.6 25 25 WNW 17 28 29.97 1015 10 16.09344 0 0
1:54 pm 13:54 Sunny 59 15 21 -6.1 23 23 W 13 20 29.97 1015 10 16.09344 0 0
2:54 pm 14:54 Sunny 61 16.1 22 -5.6 22 22 W 14 22 29.94 1014 10 16.09344 0 0
3:54 pm 15:54 Sunny 63 17.2 20 -6.7 19 19 WNW 16 26 29.91 1013 10 16.09344 0 0
4:54 pm 16:54 Sunny 63 17.2 18 -7.8 17 17 WNW 10 17 29.94 1014 10 16.09344 0 0
5:54 pm 17:54 Sunny 62 16.7 19 -7.2 19 19 WNW 7 11 29.94 1014 10 16.09344 0 0
6:54 pm 18:54 Clear 58 14.4 21 -6.1 24 24 WNW 3 6 29.94 1014 10 16.09344 0 0
7:54 pm 19:54 Clear 49 9.4 27 -2.8 43 43 Calm 30 1016 10 16.09344 0 0
8:54 pm 20:54 Clear 38 3.3 28 -2.2 68 68 NNW 7 11 30 1016 10 16.09344 0 0
9:54 pm 21:54 Clear 35 1.7 28 -2.2 76 76 NNW 5 7 30 1016 10 16.09344 0 0
10:54 pm 22:54 Clear 34 1.1 28 -2.2 79 79 NNW 6 9 30.03 1017 10 16.09344 0 0
11:54 pm 23:54 Clear 35 1.7 28 -2.2 76 76 Calm 30.03 1017 10 16.09344 0 0

Powered by AerisWeather